Time;durP1;ratioP1;P1;durP2;ratioP2;P2;SDS_P1;SDS_P2;PMS_P1;PMS_P2;Temp;Humidity;BMP_temperature;BMP_pressure;BME280_temperature;BME280_humidity;BME280_pressure;Samples;Min_cycle;Max_cycle;Signal;HPM_P1;HPM_P2
2023/03/06 00:07:07;;;;;;;63.10;40.50;;;;;;;-8.97;93.17;98493.84;433516;1254;143261;-67
2023/03/06 00:17:13;;;;;;;53.40;38.90;;;;;;;-9.02;93.27;98486.73;440184;1255;146394;-67
2023/03/06 00:27:19;;;;;;;56.10;38.00;;;;;;;-9.09;92.94;98482.84;433762;1256;142446;-66
2023/03/06 00:37:26;;;;;;;58.90;38.70;;;;;;;-9.05;93.03;98485.38;436372;1254;144331;-68
2023/03/06 00:47:31;;;;;;;62.50;38.90;;;;;;;-8.89;93.30;98481.92;437373;1254;144313;-68
2023/03/06 00:57:37;;;;;;;72.60;44.10;;;;;;;-8.72;93.31;98478.83;433079;1255;141970;-67
2023/03/06 01:07:43;;;;;;;65.60;42.00;;;;;;;-8.67;93.53;98468.96;436528;1254;142934;-66
2023/03/06 01:17:51;;;;;;;72.40;46.50;;;;;;;-8.60;93.80;98470.63;437161;1254;142668;-66
2023/03/06 01:27:57;;;;;;;102.80;63.20;;;;;;;-8.55;93.73;98465.86;440652;1254;147809;-67
2023/03/06 01:38:03;;;;;;;76.50;46.10;;;;;;;-8.56;93.90;98461.79;439362;1254;143868;-66
2023/03/06 01:48:09;;;;;;;65.50;43.70;;;;;;;-8.63;93.53;98457.58;437842;1255;147498;-67
2023/03/06 01:58:18;;;;;;;77.60;51.60;;;;;;;-8.81;93.22;98451.04;433941;1254;142161;-66
2023/03/06 02:08:24;;;;;;;69.90;42.50;;;;;;;-8.93;93.34;98443.78;434547;1254;143823;-67
2023/03/06 02:18:31;;;;;;;76.90;43.50;;;;;;;-9.07;93.04;98440.78;433535;1254;146092;-66
2023/03/06 02:28:38;;;;;;;66.00;41.40;;;;;;;-9.16;92.94;98437.75;448713;1253;144158;-68
2023/03/06 02:38:48;;;;;;;65.00;39.30;;;;;;;-9.18;93.06;98433.36;436630;1254;144073;-66
2023/03/06 02:48:54;;;;;;;58.70;38.70;;;;;;;-9.19;93.06;98430.13;434030;1254;142929;-67
2023/03/06 02:59:00;;;;;;;62.80;39.80;;;;;;;-9.23;93.19;98423.88;440156;1255;143500;-67
2023/03/06 03:09:06;;;;;;;63.20;39.50;;;;;;;-9.37;92.52;98418.33;432794;1254;146902;-67
2023/03/06 03:19:12;;;;;;;59.10;35.20;;;;;;;-9.50;92.37;98410.89;435251;1254;145491;-66
2023/03/06 03:29:18;;;;;;;60.40;41.10;;;;;;;-9.61;92.25;98408.02;433250;1257;144400;-67
2023/03/06 03:39:24;;;;;;;49.40;33.60;;;;;;;-9.71;92.25;98406.50;442768;1254;147309;-66
2023/03/06 03:49:30;;;;;;;55.00;34.90;;;;;;;-9.69;92.69;98397.88;438627;1254;144230;-67
2023/03/06 03:59:36;;;;;;;52.00;35.60;;;;;;;-9.70;92.74;98391.95;440586;1254;143231;-67
2023/03/06 04:09:41;;;;;;;51.50;32.90;;;;;;;-9.52;93.11;98379.03;433282;1254;143661;-67
2023/03/06 04:19:47;;;;;;;51.70;31.50;;;;;;;-9.33;93.36;98378.14;432448;1254;212212;-64
2023/03/06 04:29:55;;;;;;;49.00;31.80;;;;;;;-9.06;93.71;98375.32;432521;1254;158084;-66
2023/03/06 04:40:00;;;;;;;49.40;32.30;;;;;;;-8.71;94.22;98367.85;432601;1255;142624;-66
2023/03/06 04:50:09;;;;;;;50.70;34.20;;;;;;;-8.25;94.91;98357.83;438786;1254;142656;-67
2023/03/06 05:00:18;;;;;;;45.80;30.80;;;;;;;-7.63;96.40;98342.16;435794;1254;143213;-67
2023/03/06 05:10:24;;;;;;;39.30;30.60;;;;;;;-7.17;96.93;98339.09;437180;1254;146127;-65
2023/03/06 05:20:31;;;;;;;48.00;34.50;;;;;;;-6.86;96.83;98341.08;436162;1254;143204;-66
2023/03/06 05:30:37;;;;;;;53.20;39.00;;;;;;;-6.43;97.62;98334.16;434027;1256;142204;-65
2023/03/06 05:40:44;;;;;;;51.90;40.60;;;;;;;-6.00;98.26;98339.27;439744;1255;143356;-66
2023/03/06 05:50:56;;;;;;;54.70;39.80;;;;;;;-5.59;98.77;98327.95;434371;1254;142410;-66
2023/03/06 06:01:08;;;;;;;52.20;36.40;;;;;;;-5.19;99.27;98330.24;442019;1255;143222;-66
2023/03/06 06:11:14;;;;;;;50.80;32.90;;;;;;;-4.78;99.44;98322.06;449094;1253;143761;-65
2023/03/06 06:21:20;;;;;;;40.40;28.30;;;;;;;-4.33;99.73;98316.61;444621;1254;147943;-66
2023/03/06 06:31:26;;;;;;;47.90;32.10;;;;;;;-3.86;99.84;98316.64;448543;1254;142781;-65
2023/03/06 06:41:32;;;;;;;57.60;38.90;;;;;;;-3.43;99.94;98307.98;449515;1253;143582;-66
2023/03/06 06:51:57;;;;;;;41.20;23.80;;;;;;;-2.92;99.90;98297.97;448646;1253;143842;-65
2023/03/06 07:02:04;;;;;;;46.00;29.50;;;;;;;-2.41;99.76;98288.55;449633;1253;143083;-65
2023/03/06 07:12:10;;;;;;;35.10;23.70;;;;;;;-1.84;99.57;98283.06;449517;1254;142630;-66
2023/03/06 07:22:16;;;;;;;31.90;22.50;;;;;;;-1.44;98.78;98277.40;448733;1254;143777;-66
2023/03/06 07:32:21;;;;;;;32.10;20.40;;;;;;;-1.18;98.46;98270.63;448663;1254;141920;-66
2023/03/06 07:42:28;;;;;;;26.70;17.60;;;;;;;-0.90;97.93;98265.62;449654;1254;142497;-66
2023/03/06 07:52:33;;;;;;;25.60;16.40;;;;;;;-0.77;97.27;98261.35;448755;1253;145180;-66
2023/03/06 08:02:40;;;;;;;23.60;16.60;;;;;;;-0.90;96.73;98262.50;449463;1254;142265;-65
2023/03/06 08:12:46;;;;;;;24.50;16.00;;;;;;;-0.87;96.59;98257.44;449001;1255;143102;-65
2023/03/06 08:22:52;;;;;;;24.30;14.80;;;;;;;-0.73;96.27;98241.44;449460;1253;142870;-66
2023/03/06 08:32:58;;;;;;;27.30;16.80;;;;;;;-0.77;95.84;98235.75;449344;1254;144296;-65
2023/03/06 08:43:05;;;;;;;21.80;13.50;;;;;;;-0.79;95.66;98229.28;448723;1254;143937;-65
2023/03/06 08:53:10;;;;;;;23.60;16.00;;;;;;;-0.72;95.80;98221.77;449444;1254;142337;-66
2023/03/06 09:03:16;;;;;;;19.40;13.10;;;;;;;-0.64;95.61;98220.30;449486;1254;143072;-66
2023/03/06 09:13:22;;;;;;;15.70;11.90;;;;;;;-0.73;95.15;98224.56;448712;1255;144442;-67
2023/03/06 09:23:27;;;;;;;18.40;11.40;;;;;;;-0.66;95.62;98218.95;446461;1256;143821;-65
2023/03/06 09:33:33;;;;;;;25.40;15.30;;;;;;;-0.48;95.55;98210.01;449113;1255;146195;-64
2023/03/06 09:43:41;;;;;;;27.90;17.00;;;;;;;-0.34;95.73;98201.73;448424;1254;143249;-66
2023/03/06 09:54:01;;;;;;;19.00;15.40;;;;;;;-0.14;95.95;98196.74;449213;1255;142096;-65
2023/03/06 10:04:19;;;;;;;27.40;18.00;;;;;;;0.44;96.28;98189.90;448457;1254;142903;-65
2023/03/06 10:14:35;;;;;;;19.40;14.00;;;;;;;0.97;96.27;98177.36;449127;1258;141997;-66
2023/03/06 10:24:50;;;;;;;19.40;17.00;;;;;;;1.65;96.15;98171.83;449198;1255;142715;-66
2023/03/06 10:35:00;;;;;;;17.40;13.10;;;;;;;1.84;95.34;98166.91;448860;1256;209529;-66
2023/03/06 10:45:14;;;;;;;16.00;11.80;;;;;;;1.80;95.60;98159.73;449423;1254;142927;-66
2023/03/06 10:55:30;;;;;;;14.10;11.10;;;;;;;2.07;95.52;98158.47;448633;1254;143196;-66
2023/03/06 11:05:36;;;;;;;13.60;11.50;;;;;;;2.36;94.74;98156.45;449499;1254;143515;-66
2023/03/06 11:15:57;;;;;;;14.70;12.30;;;;;;;2.44;94.14;98152.09;449345;1254;143011;-66
2023/03/06 11:26:22;;;;;;;12.80;9.90;;;;;;;2.34;93.98;98144.83;441383;1257;212699;-65
2023/03/06 11:36:36;;;;;;;11.20;10.10;;;;;;;2.26;93.63;98146.97;447140;1254;142148;-66
2023/03/06 11:46:49;;;;;;;9.90;8.40;;;;;;;2.04;93.08;98147.92;448728;1255;143214;-66
2023/03/06 11:56:59;;;;;;;10.80;8.90;;;;;;;2.14;93.54;98143.63;449451;1254;143336;-66
2023/03/06 12:07:21;;;;;;;11.00;9.00;;;;;;;2.44;93.20;98143.27;448752;1254;143596;-65
2023/03/06 12:17:36;;;;;;;10.70;8.50;;;;;;;3.19;92.89;98137.91;449405;1254;142346;-67
2023/03/06 12:27:49;;;;;;;9.00;8.10;;;;;;;3.78;91.94;98135.60;438769;1257;142670;-67
2023/03/06 12:38:07;;;;;;;11.70;9.80;;;;;;;4.00;91.09;98131.20;431705;1259;196850;-66
2023/03/06 12:48:18;;;;;;;12.40;10.00;;;;;;;3.92;90.80;98131.98;449173;1256;142484;-67
2023/03/06 12:58:46;;;;;;;25.00;15.80;;;;;;;3.91;90.23;98131.21;448455;1255;142641;-68
2023/03/06 13:09:19;;;;;;;12.50;9.30;;;;;;;3.60;89.75;98124.52;449222;1254;142501;-68
2023/03/06 13:19:26;;;;;;;12.50;8.80;;;;;;;3.57;89.63;98122.98;436146;1259;145957;-68
2023/03/06 13:30:13;;;;;;;8.20;7.40;;;;;;;3.43;89.28;98124.80;444427;1256;142994;-68
2023/03/06 13:40:34;;;;;;;10.30;7.50;;;;;;;3.47;88.95;98115.06;449193;1256;142970;-68
2023/03/06 13:50:42;;;;;;;8.50;6.80;;;;;;;3.27;88.87;98115.19;449989;1253;142318;-68
2023/03/06 14:01:17;;;;;;;10.10;7.70;;;;;;;3.36;89.35;98110.19;449215;1254;141982;-66
2023/03/06 14:11:24;;;;;;;11.50;8.20;;;;;;;3.31;89.21;98098.54;449981;1255;142339;-68
2023/03/06 14:21:36;;;;;;;13.70;9.70;;;;;;;3.23;89.54;98089.14;449986;1254;141963;-63
2023/03/06 14:31:44;;;;;;;10.90;9.40;;;;;;;3.25;89.56;98074.30;434085;1254;142382;-64
2023/03/06 14:41:50;;;;;;;13.00;10.90;;;;;;;3.25;89.52;98069.31;449872;1254;141843;-62
2023/03/06 14:51:59;;;;;;;14.40;12.20;;;;;;;3.22;89.29;98059.63;449096;1254;143122;-63
2023/03/06 15:02:09;;;;;;;17.60;12.50;;;;;;;3.14;88.95;98060.56;449836;1253;142416;-63
2023/03/06 15:12:37;;;;;;;16.40;14.00;;;;;;;2.97;88.78;98055.34;449851;1254;143798;-62
2023/03/06 15:22:43;;;;;;;17.50;14.10;;;;;;;2.76;88.81;98056.54;443620;1254;143227;-63
2023/03/06 15:32:49;;;;;;;14.80;11.70;;;;;;;2.23;89.36;98075.66;432467;1258;142606;-63
2023/03/06 15:42:55;;;;;;;12.50;10.30;;;;;;;1.70;90.48;98083.40;446990;1254;151857;-64
2023/03/06 15:53:01;;;;;;;12.50;10.70;;;;;;;1.41;91.31;98091.59;445078;1254;142313;-63
2023/03/06 16:03:09;;;;;;;12.70;9.60;;;;;;;1.03;91.71;98094.16;449272;1254;142651;-64
2023/03/06 16:13:19;;;;;;;10.90;9.70;;;;;;;0.72;92.60;98094.09;446702;1254;142222;-64
2023/03/06 16:23:24;;;;;;;15.30;10.70;;;;;;;0.51;93.03;98098.02;439719;1254;146307;-63
2023/03/06 16:33:30;;;;;;;14.20;9.80;;;;;;;0.31;93.51;98096.52;443293;1254;141086;-63
2023/03/06 16:43:36;;;;;;;13.30;10.40;;;;;;;0.17;93.75;98095.76;448828;1252;143104;-63
2023/03/06 16:53:42;;;;;;;11.60;9.10;;;;;;;0.04;93.87;98097.89;449702;1254;142673;-62
2023/03/06 17:03:48;;;;;;;17.50;10.70;;;;;;;-0.15;94.28;98089.27;449028;1253;141940;-63
2023/03/06 17:13:54;;;;;;;13.20;10.40;;;;;;;-0.15;94.68;98091.35;449720;1253;143552;-64
2023/03/06 17:24:02;;;;;;;13.30;10.60;;;;;;;-0.27;94.83;98095.33;441423;1254;144005;-63
2023/03/06 17:34:08;;;;;;;14.70;11.30;;;;;;;-0.33;95.35;98097.80;432234;1253;144282;-65
2023/03/06 17:44:15;;;;;;;70.40;37.40;;;;;;;-0.35;95.72;98093.42;444819;1254;143470;-65
2023/03/06 17:54:21;;;;;;;45.20;25.50;;;;;;;-0.36;96.18;98090.71;449627;1252;143159;-66
2023/03/06 18:04:27;;;;;;;19.70;14.80;;;;;;;-0.37;96.52;98106.21;448904;1253;142204;-66
2023/03/06 18:14:33;;;;;;;41.70;24.40;;;;;;;-0.33;96.63;98103.80;449734;1252;143673;-65
2023/03/06 18:24:39;;;;;;;52.60;31.20;;;;;;;-0.30;96.70;98098.16;449805;1253;141717;-65
2023/03/06 18:34:45;;;;;;;56.10;36.40;;;;;;;-0.24;97.08;98100.67;449067;1252;143100;-66
2023/03/06 18:44:50;;;;;;;46.30;32.50;;;;;;;-0.09;97.36;98098.14;449703;1252;143347;-66
2023/03/06 18:54:56;;;;;;;58.80;35.60;;;;;;;-0.05;97.30;98099.85;449044;1252;143961;-65
2023/03/06 19:05:02;;;;;;;27.00;21.00;;;;;;;-0.01;97.48;98100.34;449762;1252;142844;-65
2023/03/06 19:15:10;;;;;;;83.70;40.70;;;;;;;0.01;97.48;98095.63;449579;1252;142571;-65
2023/03/06 19:25:16;;;;;;;25.10;18.40;;;;;;;-0.11;97.49;98095.46;448878;1252;142401;-64
2023/03/06 19:35:22;;;;;;;23.40;17.50;;;;;;;-0.16;97.78;98100.50;447274;1252;142428;-65
2023/03/06 19:45:27;;;;;;;25.30;18.10;;;;;;;-0.22;98.13;98100.75;447421;1252;142207;-65
2023/03/06 19:55:33;;;;;;;18.60;16.20;;;;;;;-0.20;98.15;98100.86;448829;1252;142481;-64
2023/03/06 20:05:47;;;;;;;22.00;16.80;;;;;;;-0.17;98.49;98100.38;449667;1253;142979;-64
2023/03/06 20:15:52;;;;;;;18.80;15.00;;;;;;;-0.13;98.36;98098.83;448874;1253;142849;-66
2023/03/06 20:26:02;;;;;;;18.80;13.40;;;;;;;0.00;98.56;98105.81;449721;1253;142522;-66
2023/03/06 20:36:14;;;;;;;14.30;11.40;;;;;;;-0.00;97.96;98103.94;441839;1252;141916;-65
2023/03/06 20:46:21;;;;;;;17.70;13.20;;;;;;;-0.06;97.88;98111.59;432584;1254;141447;-64
2023/03/06 20:56:29;;;;;;;14.40;9.90;;;;;;;-0.12;97.64;98108.06;435995;1253;142660;-66
2023/03/06 21:06:35;;;;;;;9.20;7.70;;;;;;;-0.42;97.04;98107.45;449736;1252;143996;-66
2023/03/06 21:16:41;;;;;;;9.50;7.30;;;;;;;-0.51;96.93;98109.21;448901;1253;141511;-65
2023/03/06 21:26:47;;;;;;;10.00;7.80;;;;;;;-0.64;97.09;98112.51;449739;1252;143355;-66
2023/03/06 21:36:52;;;;;;;11.40;7.20;;;;;;;-0.63;97.28;98110.59;448504;1253;141922;-66
2023/03/06 21:46:58;;;;;;;8.50;7.00;;;;;;;-0.60;97.06;98119.91;439216;1254;143676;-66
2023/03/06 21:57:04;;;;;;;9.90;4.90;;;;;;;-0.72;96.65;98126.23;449551;1254;142728;-66
2023/03/06 22:07:10;;;;;;;11.50;6.60;;;;;;;-0.82;96.27;98138.16;434349;1255;144475;-64
2023/03/06 22:17:16;;;;;;;10.30;7.40;;;;;;;-0.96;95.54;98132.91;433234;1254;145615;-65
2023/03/06 22:27:22;;;;;;;4.40;3.40;;;;;;;-1.05;95.34;98130.83;433162;1257;142880;-66
2023/03/06 22:37:27;;;;;;;5.50;4.20;;;;;;;-1.12;95.28;98136.59;448356;1253;142761;-65
2023/03/06 22:47:35;;;;;;;6.60;5.50;;;;;;;-1.14;95.24;98140.25;449656;1254;142582;-65
2023/03/06 22:57:43;;;;;;;8.80;6.20;;;;;;;-1.12;95.11;98146.21;449755;1252;142506;-65
2023/03/06 23:07:49;;;;;;;9.70;6.80;;;;;;;-1.24;94.85;98151.17;437156;1252;207497;-65
2023/03/06 23:17:55;;;;;;;10.70;8.30;;;;;;;-1.38;94.88;98155.45;435223;1254;142230;-65
2023/03/06 23:28:00;;;;;;;13.40;9.00;;;;;;;-1.57;94.91;98150.70;436095;1253;142643;-66
2023/03/06 23:38:06;;;;;;;14.30;9.00;;;;;;;-1.68;94.83;98153.66;436391;1253;142175;-66
2023/03/06 23:48:16;;;;;;;12.20;10.10;;;;;;;-1.76;94.37;98160.28;434632;1254;141330;-65
2023/03/06 23:58:22;;;;;;;14.00;10.60;;;;;;;-1.95;94.06;98159.60;435029;1252;145998;-65
